Time;durP1;ratioP1;P1;durP2;ratioP2;P2;SDS_P1;SDS_P2;PMS_P1;PMS_P2;Temp;Humidity;BMP_temperature;BMP_pressure;BME280_temperature;BME280_humidity;BME280_pressure;Samples;Min_cycle;Max_cycle;Signal;HPM_P1;HPM_P2
2021/12/11 00:00:39;;;;;;;35.97;21.52;;;2.70;99.90;;;;;;5093276;28;20056;-79
2021/12/11 00:03:05;;;;;;;39.75;23.55;;;2.70;99.90;;;;;;5093615;28;20032;-79
2021/12/11 00:05:33;;;;;;;38.88;22.40;;;2.70;99.90;;;;;;5093474;28;20468;-79
2021/12/11 00:08:00;;;;;;;38.30;21.38;;;2.60;99.90;;;;;;5076403;28;20028;-79
2021/12/11 00:10:33;;;;;;;42.97;23.00;;;2.70;99.90;;;;;;5076105;28;20115;-79
2021/12/11 00:13:06;;;;;;;42.08;21.83;;;2.60;99.90;;;;;;5078091;28;20020;-79
2021/12/11 00:15:36;;;;;;;37.53;20.70;;;2.60;99.90;;;;;;5094549;28;20024;-79
2021/12/11 00:18:06;;;;;;;52.17;24.85;;;2.50;99.90;;;;;;5094263;28;20125;-79
2021/12/11 00:20:38;;;;;;;50.30;23.92;;;2.50;99.90;;;;;;5094322;28;20027;-79
2021/12/11 00:23:05;;;;;;;42.28;21.73;;;2.50;99.90;;;;;;5094142;28;20028;-79
2021/12/11 00:25:31;;;;;;;44.03;24.42;;;2.50;99.90;;;;;;5094231;28;20040;-79
2021/12/11 00:28:06;;;;;;;38.60;21.67;;;2.50;99.90;;;;;;5076184;28;20124;-79
2021/12/11 00:30:36;;;;;;;44.88;22.85;;;2.50;99.90;;;;;;5092700;28;20039;-79
2021/12/11 00:33:13;;;;;;;44.35;24.08;;;2.50;99.90;;;;;;5072249;28;20029;-79
2021/12/11 00:35:40;;;;;;;51.83;25.42;;;2.60;99.90;;;;;;5073930;28;20048;-79
2021/12/11 00:38:13;;;;;;;52.22;26.75;;;2.60;99.90;;;;;;5080838;28;20059;-79
2021/12/11 00:40:41;;;;;;;46.22;24.02;;;2.70;99.90;;;;;;5093758;28;20477;-79
2021/12/11 00:43:12;;;;;;;71.07;29.05;;;2.70;99.90;;;;;;5092081;28;20073;-79
2021/12/11 00:45:39;;;;;;;75.13;27.02;;;2.70;99.90;;;;;;5091972;28;20682;-79
2021/12/11 00:48:10;;;;;;;104.10;29.88;;;2.80;99.90;;;;;;5092037;28;20392;-79
2021/12/11 00:50:59;;;;;;;98.15;27.38;;;2.80;99.90;;;;;;5091920;28;20062;-79
2021/12/11 00:53:32;;;;;;;133.63;29.75;;;2.80;99.90;;;;;;5091898;28;20036;-79
2021/12/11 00:56:02;;;;;;;159.18;30.08;;;2.80;99.90;;;;;;5091584;28;20031;-79
2021/12/11 00:58:35;;;;;;;147.95;29.70;;;2.80;99.90;;;;;;5091922;28;20069;-79
2021/12/11 01:01:03;;;;;;;108.65;28.20;;;2.80;99.90;;;;;;5107737;28;20035;-79
2021/12/11 01:03:54;;;;;;;106.72;28.40;;;2.80;99.90;;;;;;5106290;28;20042;-79
2021/12/11 01:06:38;;;;;;;198.55;31.77;;;2.90;99.90;;;;;;5107708;28;20035;-79
2021/12/11 01:09:33;;;;;;;233.02;33.38;;;2.90;99.90;;;;;;5093649;28;20047;-79
2021/12/11 01:12:10;;;;;;;144.82;28.13;;;2.80;99.90;;;;;;5103924;28;20040;-79
2021/12/11 01:14:53;;;;;;;110.75;29.10;;;2.90;99.90;;;;;;5095049;28;20518;-79
2021/12/11 01:17:44;;;;;;;155.90;30.75;;;2.90;99.90;;;;;;5080819;28;20388;-79
2021/12/11 01:20:19;;;;;;;177.43;30.92;;;2.90;99.90;;;;;;5075361;28;20027;-79
2021/12/11 01:22:45;;;;;;;244.55;33.08;;;2.90;99.90;;;;;;5086266;28;20062;-79
2021/12/11 01:25:19;;;;;;;258.15;32.13;;;3.00;99.90;;;;;;5095418;28;20036;-79
2021/12/11 01:27:48;;;;;;;329.73;37.45;;;2.90;99.90;;;;;;5113525;28;20026;-79
2021/12/11 01:30:19;;;;;;;309.02;37.22;;;2.90;99.90;;;;;;5113656;28;20034;-79
2021/12/11 01:32:45;;;;;;;413.80;45.63;;;2.90;99.90;;;;;;5089665;28;20029;-79
2021/12/11 01:35:14;;;;;;;203.20;36.30;;;2.90;99.90;;;;;;5108393;28;20024;-79
2021/12/11 01:37:40;;;;;;;614.67;56.72;;;2.90;99.90;;;;;;5113549;28;20016;-79
2021/12/11 01:40:09;;;;;;;208.05;36.10;;;2.90;99.90;;;;;;5095203;28;20396;-79
2021/12/11 01:42:36;;;;;;;332.35;39.47;;;2.90;99.90;;;;;;5112931;28;20387;-79
2021/12/11 01:45:07;;;;;;;89.57;34.85;;;2.90;99.90;;;;;;5094977;28;20031;-79
2021/12/11 01:47:36;;;;;;;227.15;40.40;;;2.90;99.90;;;;;;5094769;28;20052;-79
2021/12/11 01:50:07;;;;;;;119.35;34.88;;;2.90;99.90;;;;;;5074892;28;20028;-79
2021/12/11 01:52:42;;;;;;;235.63;36.72;;;2.90;99.90;;;;;;5105235;28;20106;-79
2021/12/11 01:55:20;;;;;;;188.57;35.20;;;2.90;99.90;;;;;;5117286;28;20081;-79
2021/12/11 01:57:52;;;;;;;359.33;46.42;;;3.00;99.90;;;;;;5098964;28;20023;-79
2021/12/11 02:00:38;;;;;;;154.05;36.53;;;3.00;99.90;;;;;;5098680;28;20054;-79
2021/12/11 02:03:12;;;;;;;216.05;39.47;;;2.90;99.90;;;;;;5116814;28;20042;-79
2021/12/11 02:05:40;;;;;;;159.85;36.65;;;2.90;99.90;;;;;;5097053;28;20027;-79
2021/12/11 02:08:12;;;;;;;211.20;38.95;;;2.90;99.90;;;;;;5089848;28;20027;-79
2021/12/11 02:11:00;;;;;;;161.75;36.70;;;2.90;99.90;;;;;;5099229;28;20112;-79
2021/12/11 02:13:58;;;;;;;216.37;37.83;;;2.90;99.90;;;;;;5116508;28;20027;-79
2021/12/11 02:16:34;;;;;;;263.42;40.33;;;2.90;99.90;;;;;;5091319;28;20408;-79
2021/12/11 02:19:09;;;;;;;214.15;38.30;;;2.90;99.90;;;;;;5096286;28;20417;-79
2021/12/11 02:21:48;;;;;;;203.07;37.72;;;2.90;99.90;;;;;;5076183;28;20020;-79
2021/12/11 02:24:20;;;;;;;218.13;40.60;;;2.90;99.90;;;;;;5076333;28;20400;-79
2021/12/11 02:26:47;;;;;;;186.10;36.15;;;3.00;99.90;;;;;;5096169;28;20504;-79
2021/12/11 02:29:21;;;;;;;100.00;36.05;;;2.90;99.90;;;;;;5097877;28;20023;-79
2021/12/11 02:32:07;;;;;;;216.93;36.63;;;3.00;99.90;;;;;;5089570;28;20028;-79
2021/12/11 02:34:35;;;;;;;499.58;46.72;;;3.00;99.90;;;;;;5077546;28;20031;-79
2021/12/11 02:37:21;;;;;;;168.32;35.63;;;3.00;99.90;;;;;;5079504;28;20035;-79
2021/12/11 02:40:10;;;;;;;293.15;41.10;;;3.00;99.90;;;;;;5097926;28;20027;-79
2021/12/11 02:42:56;;;;;;;456.17;49.42;;;3.00;99.90;;;;;;5106862;28;20556;-79
2021/12/11 02:45:40;;;;;;;491.02;48.85;;;3.10;99.90;;;;;;5081120;28;20496;-79
2021/12/11 02:48:12;;;;;;;116.63;38.95;;;3.10;99.90;;;;;;5114003;28;20031;-79
2021/12/11 02:50:48;;;;;;;112.05;36.03;;;3.10;99.90;;;;;;5106313;28;20031;-79
2021/12/11 02:53:32;;;;;;;190.15;41.13;;;3.10;99.90;;;;;;5088049;28;20020;-79
2021/12/11 02:56:22;;;;;;;139.70;41.22;;;3.10;99.90;;;;;;5115145;28;20047;-79
2021/12/11 02:58:53;;;;;;;144.25;39.63;;;3.20;99.90;;;;;;5096109;28;20031;-79
2021/12/11 03:01:29;;;;;;;227.10;38.17;;;3.20;99.90;;;;;;5076033;28;20040;-79
2021/12/11 03:04:13;;;;;;;147.38;41.20;;;3.20;99.90;;;;;;5112559;28;20410;-79
2021/12/11 03:06:43;;;;;;;278.35;45.05;;;3.30;99.90;;;;;;5076563;28;20034;-79
2021/12/11 03:09:12;;;;;;;186.57;42.38;;;3.30;99.90;;;;;;5097529;28;20043;-78
2021/12/11 03:11:38;;;;;;;267.25;43.67;;;3.30;99.90;;;;;;5096010;28;20020;-78
2021/12/11 03:14:05;;;;;;;280.40;45.00;;;3.30;99.90;;;;;;5096516;28;20434;-79
2021/12/11 03:16:34;;;;;;;287.13;45.92;;;3.30;99.90;;;;;;5076449;28;20020;-79
2021/12/11 03:19:02;;;;;;;232.30;47.58;;;3.30;99.90;;;;;;5111204;28;20480;-79
2021/12/11 03:21:28;;;;;;;229.68;45.72;;;3.30;99.90;;;;;;5114859;28;20059;-79
2021/12/11 03:23:55;;;;;;;141.20;42.70;;;3.30;99.90;;;;;;5096614;28;20070;-79
2021/12/11 03:26:22;;;;;;;112.13;42.25;;;3.30;99.90;;;;;;5093360;28;20038;-79
2021/12/11 03:28:48;;;;;;;246.90;49.05;;;3.30;99.90;;;;;;5096694;28;20106;-79
2021/12/11 03:31:14;;;;;;;397.02;52.58;;;3.30;99.90;;;;;;5114700;28;20098;-79
2021/12/11 03:33:46;;;;;;;157.98;45.78;;;3.40;99.90;;;;;;5095905;28;20035;-79
2021/12/11 03:36:15;;;;;;;127.68;41.97;;;3.40;99.90;;;;;;5113829;28;20077;-79
2021/12/11 03:38:47;;;;;;;122.75;43.22;;;3.40;99.90;;;;;;5114517;28;20431;-79
2021/12/11 03:41:13;;;;;;;350.33;53.40;;;3.50;99.90;;;;;;5113729;28;20027;-79
2021/12/11 03:43:39;;;;;;;287.17;50.85;;;3.50;99.90;;;;;;5114195;28;20019;-79
2021/12/11 03:46:08;;;;;;;154.93;47.15;;;3.50;99.90;;;;;;5058855;28;20034;-79
2021/12/11 03:48:57;;;;;;;183.18;46.97;;;3.50;99.90;;;;;;5107630;28;20042;-79
2021/12/11 03:51:28;;;;;;;155.43;45.05;;;3.50;99.90;;;;;;5095994;28;20028;-79
2021/12/11 03:53:55;;;;;;;167.10;46.00;;;3.60;99.90;;;;;;5114074;28;20039;-79
2021/12/11 03:56:21;;;;;;;141.18;47.33;;;3.50;99.90;;;;;;5096048;28;20045;-79
2021/12/11 03:58:51;;;;;;;143.85;45.97;;;3.50;99.90;;;;;;5078904;28;20028;-79
2021/12/11 04:01:31;;;;;;;156.05;46.58;;;3.50;99.90;;;;;;5049012;28;1100723;-79
2021/12/11 04:04:09;;;;;;;162.48;47.22;;;3.50;99.90;;;;;;5096839;28;20061;-79
2021/12/11 04:06:35;;;;;;;167.00;46.37;;;3.50;99.90;;;;;;5096660;28;20027;-79
2021/12/11 04:09:06;;;;;;;353.92;52.88;;;3.50;99.90;;;;;;5114790;28;20043;-79
2021/12/11 04:11:34;;;;;;;145.57;47.97;;;3.50;99.90;;;;;;5114826;28;20088;-79
2021/12/11 04:14:05;;;;;;;136.00;45.80;;;3.60;99.90;;;;;;5113966;28;20687;-79
2021/12/11 04:16:32;;;;;;;140.05;46.30;;;3.60;99.90;;;;;;5096209;28;20550;-79
2021/12/11 04:18:59;;;;;;;219.50;49.58;;;3.50;99.90;;;;;;5096169;28;20082;-79
2021/12/11 04:21:25;;;;;;;159.63;49.28;;;3.60;99.90;;;;;;5096467;28;20425;-79
2021/12/11 04:23:51;;;;;;;177.52;50.22;;;3.60;99.90;;;;;;5078491;28;20065;-79
2021/12/11 04:26:17;;;;;;;169.10;51.55;;;3.60;99.90;;;;;;5075859;28;20028;-79
2021/12/11 04:28:48;;;;;;;173.48;52.13;;;3.60;99.90;;;;;;5093926;28;20426;-79
2021/12/11 04:31:18;;;;;;;141.20;48.03;;;3.60;99.90;;;;;;5087493;28;20024;-79
2021/12/11 04:33:48;;;;;;;155.20;48.80;;;3.60;99.90;;;;;;5095024;28;20024;-79
2021/12/11 04:36:20;;;;;;;140.63;45.22;;;3.60;99.90;;;;;;5113918;28;20095;-79
2021/12/11 04:38:47;;;;;;;157.77;48.15;;;3.70;99.90;;;;;;5113829;28;20527;-79
2021/12/11 04:41:31;;;;;;;194.15;50.88;;;3.70;99.90;;;;;;5093695;28;20031;-79
2021/12/11 04:44:00;;;;;;;152.95;46.55;;;3.70;99.90;;;;;;5075185;28;20020;-78
2021/12/11 04:46:26;;;;;;;140.88;46.25;;;3.70;99.90;;;;;;5075394;28;20028;-79
2021/12/11 04:52:05;;;;;;;160.65;46.67;;;3.80;99.90;;;;;;5080579;28;20123;-79
2021/12/11 05:00:07;;;;;;;129.57;43.72;;;3.70;99.90;;;;;;5093467;28;19957;-79
2021/12/11 05:08:36;;;;;;;145.35;44.92;;;3.70;99.90;;;;;;5078302;28;20124;-79
2021/12/11 05:11:02;;;;;;;139.55;46.35;;;3.70;99.90;;;;;;5079841;28;20111;-79
2021/12/11 05:13:29;;;;;;;177.85;50.05;;;3.70;99.90;;;;;;5095336;28;20032;-79
2021/12/11 05:15:59;;;;;;;188.25;52.15;;;3.80;99.90;;;;;;5076269;28;20050;-78
2021/12/11 05:18:28;;;;;;;161.93;48.08;;;3.80;99.90;;;;;;5113620;28;20015;-79
2021/12/11 05:20:57;;;;;;;183.52;50.97;;;3.80;99.90;;;;;;5109158;28;20066;-79
2021/12/11 05:23:23;;;;;;;352.75;57.65;;;3.80;99.90;;;;;;5093165;28;20126;-79
2021/12/11 05:25:49;;;;;;;273.00;55.53;;;3.80;99.90;;;;;;5105351;28;20054;-79
2021/12/11 05:28:15;;;;;;;178.30;48.50;;;3.80;99.90;;;;;;5113622;28;20058;-79
2021/12/11 05:30:45;;;;;;;290.73;55.85;;;3.80;99.90;;;;;;5062246;28;20422;-79
2021/12/11 05:33:11;;;;;;;210.95;54.38;;;3.80;99.90;;;;;;5095286;28;20031;-79
2021/12/11 05:35:39;;;;;;;227.20;55.17;;;3.80;99.90;;;;;;5113332;28;20491;-79
2021/12/11 05:38:07;;;;;;;209.18;52.28;;;3.90;99.90;;;;;;5094998;28;20119;-79
2021/12/11 05:40:35;;;;;;;201.23;54.30;;;3.80;99.90;;;;;;5113311;28;20031;-79
2021/12/11 05:43:01;;;;;;;180.30;52.47;;;3.80;99.90;;;;;;5094952;28;20030;-79
2021/12/11 05:45:27;;;;;;;294.27;58.38;;;3.90;99.90;;;;;;5095043;28;20106;-79
2021/12/11 05:47:53;;;;;;;275.95;57.00;;;3.90;99.90;;;;;;5094799;28;20089;-79
2021/12/11 05:50:33;;;;;;;181.32;51.80;;;3.90;99.90;;;;;;5112838;28;20081;-79
2021/12/11 05:53:00;;;;;;;203.55;54.67;;;3.90;99.90;;;;;;5112883;28;20468;-79
2021/12/11 05:55:28;;;;;;;177.48;50.13;;;3.90;99.90;;;;;;5077914;28;20027;-79
2021/12/11 05:57:57;;;;;;;197.53;53.47;;;3.90;99.90;;;;;;5112679;28;20065;-79
2021/12/11 06:00:27;;;;;;;160.73;49.03;;;3.90;99.90;;;;;;5095492;28;20387;-79
2021/12/11 06:02:54;;;;;;;188.48;50.80;;;3.90;99.90;;;;;;5113290;28;20511;-79
2021/12/11 06:05:20;;;;;;;215.60;52.53;;;3.90;99.90;;;;;;5095293;28;20035;-79
2021/12/11 06:07:45;;;;;;;179.13;49.70;;;3.90;99.90;;;;;;5113421;28;20020;-79
2021/12/11 06:10:17;;;;;;;171.77;48.72;;;3.90;99.90;;;;;;5082134;28;20036;-79
2021/12/11 06:12:45;;;;;;;205.43;50.95;;;4.00;99.90;;;;;;5074634;28;20132;-79
2021/12/11 06:15:11;;;;;;;221.00;52.25;;;3.90;99.90;;;;;;5092849;28;20024;-79
2021/12/11 06:17:41;;;;;;;190.30;49.30;;;4.00;99.90;;;;;;5075489;28;20032;-79
2021/12/11 06:20:08;;;;;;;179.43;48.25;;;4.00;99.90;;;;;;5085351;28;20027;-79
2021/12/11 06:22:35;;;;;;;214.65;51.90;;;4.00;99.90;;;;;;5093718;28;20046;-79
2021/12/11 06:25:12;;;;;;;189.95;47.97;;;4.00;99.90;;;;;;5112459;28;20107;-78
2021/12/11 06:27:39;;;;;;;198.32;49.55;;;4.00;99.90;;;;;;5093387;28;20031;-79
2021/12/11 06:30:06;;;;;;;228.40;50.33;;;4.00;99.90;;;;;;5092546;28;20039;-79
2021/12/11 06:32:33;;;;;;;212.68;49.85;;;4.00;99.90;;;;;;5109700;28;20043;-79
2021/12/11 06:35:01;;;;;;;182.85;47.88;;;4.10;99.90;;;;;;5077764;28;20063;-79
2021/12/11 06:37:26;;;;;;;213.07;49.13;;;4.10;99.90;;;;;;5114965;28;20034;-79
2021/12/11 06:39:53;;;;;;;196.00;46.72;;;4.10;99.90;;;;;;5116516;28;20032;-79
2021/12/11 06:42:20;;;;;;;191.35;47.30;;;4.10;99.90;;;;;;5116161;28;20103;-79
2021/12/11 06:44:47;;;;;;;182.45;45.30;;;4.10;99.90;;;;;;5096276;28;20024;-79
2021/12/11 06:47:14;;;;;;;193.13;47.63;;;4.10;99.90;;;;;;5073178;28;20036;-79
2021/12/11 06:49:42;;;;;;;210.25;46.03;;;4.10;99.90;;;;;;5096761;28;20048;-79
2021/12/11 06:52:15;;;;;;;237.27;47.30;;;4.10;99.90;;;;;;5098725;28;20027;-79
2021/12/11 06:54:42;;;;;;;188.90;45.60;;;4.20;99.90;;;;;;5116814;28;20024;-79
2021/12/11 06:57:09;;;;;;;170.82;43.67;;;4.20;99.90;;;;;;5081124;28;20028;-79
2021/12/11 06:59:35;;;;;;;205.48;45.05;;;4.20;99.90;;;;;;5080350;28;20054;-79
2021/12/11 07:02:02;;;;;;;178.10;45.40;;;4.20;99.90;;;;;;5095615;28;20032;-79
2021/12/11 07:04:27;;;;;;;254.95;48.30;;;4.20;99.90;;;;;;5084418;28;20027;-79
2021/12/11 07:06:55;;;;;;;157.52;41.40;;;4.20;99.90;;;;;;5116199;28;20051;-79
2021/12/11 07:09:23;;;;;;;170.05;41.97;;;4.20;99.90;;;;;;5116189;28;20176;-79
2021/12/11 07:11:52;;;;;;;175.60;44.10;;;4.20;99.90;;;;;;5086839;28;20402;-79
2021/12/11 07:14:19;;;;;;;173.65;43.35;;;4.20;99.90;;;;;;5060631;28;20024;-78
2021/12/11 07:16:46;;;;;;;160.32;40.40;;;4.20;99.90;;;;;;5101708;28;20026;-79
2021/12/11 07:19:14;;;;;;;156.07;40.38;;;4.20;99.90;;;;;;5115691;28;20024;-79
2021/12/11 07:21:41;;;;;;;195.38;43.40;;;4.20;99.90;;;;;;5115926;28;20094;-79
2021/12/11 07:24:09;;;;;;;155.48;40.45;;;4.30;99.90;;;;;;5097517;28;20034;-79
2021/12/11 07:26:35;;;;;;;139.35;38.40;;;4.30;99.90;;;;;;5098106;28;20065;-79
2021/12/11 07:29:09;;;;;;;150.20;38.38;;;4.20;99.90;;;;;;5097310;28;20031;-79
2021/12/11 07:31:35;;;;;;;128.85;37.03;;;4.30;99.90;;;;;;5115794;28;20034;-79
2021/12/11 07:34:01;;;;;;;126.45;36.95;;;4.30;99.90;;;;;;5075740;28;20032;-79
2021/12/11 07:36:28;;;;;;;183.32;37.83;;;4.30;99.90;;;;;;5076794;28;20028;-79
2021/12/11 07:38:55;;;;;;;147.32;38.53;;;4.30;99.90;;;;;;5107181;28;20476;-78
2021/12/11 07:41:21;;;;;;;145.50;38.85;;;4.20;99.90;;;;;;5096406;28;20070;-79
2021/12/11 07:43:48;;;;;;;133.48;38.33;;;4.30;99.90;;;;;;5115348;28;20106;-79
2021/12/11 07:46:23;;;;;;;151.40;38.60;;;4.30;99.90;;;;;;5096808;28;20023;-79
2021/12/11 07:48:49;;;;;;;131.82;35.17;;;4.30;99.90;;;;;;5095636;28;20024;-79
2021/12/11 07:51:15;;;;;;;149.93;36.78;;;4.30;99.90;;;;;;5096881;28;20023;-79
2021/12/11 07:53:42;;;;;;;126.00;34.67;;;4.30;99.90;;;;;;5114999;28;20123;-79
2021/12/11 07:56:08;;;;;;;125.25;36.15;;;4.40;99.90;;;;;;5115311;28;20020;-79
2021/12/11 07:58:34;;;;;;;161.52;36.58;;;4.40;99.90;;;;;;5115363;28;20016;-79
2021/12/11 08:01:02;;;;;;;125.60;35.60;;;4.40;99.90;;;;;;5071913;28;20048;-79
2021/12/11 08:03:28;;;;;;;117.22;33.47;;;4.40;99.90;;;;;;5101680;28;20042;-78
2021/12/11 08:05:56;;;;;;;141.18;35.78;;;4.50;99.90;;;;;;5076573;28;20024;-79
2021/12/11 08:08:22;;;;;;;131.27;35.70;;;4.40;99.90;;;;;;5093250;28;20034;-79
2021/12/11 08:10:52;;;;;;;110.35;32.20;;;4.40;99.90;;;;;;5076149;28;20030;-79
2021/12/11 08:13:18;;;;;;;163.88;37.70;;;4.50;99.90;;;;;;5103615;28;20426;-78
2021/12/11 08:15:45;;;;;;;127.70;34.65;;;4.50;99.90;;;;;;5096674;28;20061;-79
2021/12/11 08:18:12;;;;;;;139.35;37.55;;;4.50;99.90;;;;;;5114752;28;20027;-79
2021/12/11 08:20:41;;;;;;;127.30;37.08;;;4.50;99.90;;;;;;5114927;28;20411;-78
2021/12/11 08:23:09;;;;;;;119.57;36.92;;;4.50;99.90;;;;;;5076213;28;20020;-79
2021/12/11 08:25:36;;;;;;;131.77;37.60;;;4.50;99.90;;;;;;5094169;28;20432;-79
2021/12/11 08:28:05;;;;;;;117.70;35.90;;;4.60;99.90;;;;;;5076202;28;20392;-79
2021/12/11 08:30:33;;;;;;;104.87;33.90;;;4.50;99.90;;;;;;5092036;28;20028;-79
2021/12/11 08:33:00;;;;;;;151.43;38.57;;;4.50;99.90;;;;;;5089822;28;20035;-79
2021/12/11 08:35:26;;;;;;;122.57;36.75;;;4.50;99.90;;;;;;5093167;28;20123;-79
2021/12/11 08:37:54;;;;;;;115.43;35.08;;;4.60;99.90;;;;;;5095781;28;20118;-79
2021/12/11 08:40:27;;;;;;;118.82;36.20;;;4.60;99.90;;;;;;5095649;28;20023;-79
2021/12/11 08:42:56;;;;;;;132.63;38.47;;;4.60;99.90;;;;;;5114033;28;20483;-79
2021/12/11 08:45:26;;;;;;;177.63;39.28;;;4.60;99.90;;;;;;5096065;28;20059;-79
2021/12/11 08:47:56;;;;;;;187.18;43.80;;;4.70;99.90;;;;;;5096410;28;20074;-79
2021/12/11 08:50:26;;;;;;;138.73;40.15;;;4.70;99.90;;;;;;5100592;28;20153;-79
2021/12/11 08:52:53;;;;;;;133.82;39.47;;;4.70;99.90;;;;;;5113667;28;20024;-79
2021/12/11 08:55:32;;;;;;;195.98;45.65;;;4.70;99.90;;;;;;5113984;28;20039;-79
2021/12/11 08:58:00;;;;;;;112.50;39.10;;;4.80;99.90;;;;;;5095565;28;20023;-79
2021/12/11 09:00:51;;;;;;;158.57;42.33;;;4.80;99.90;;;;;;5074555;28;20044;-82
2021/12/11 09:03:33;;;;;;;118.97;40.80;;;4.80;99.90;;;;;;5080980;28;20044;-81
2021/12/11 09:06:14;;;;;;;121.32;41.78;;;4.90;99.90;;;;;;5076249;28;20160;-80
2021/12/11 09:08:45;;;;;;;108.32;38.53;;;4.90;99.90;;;;;;5075028;28;20081;-79
2021/12/11 09:11:13;;;;;;;102.15;36.55;;;4.90;99.90;;;;;;5086374;28;20028;-80
2021/12/11 09:13:47;;;;;;;101.35;38.70;;;4.90;99.90;;;;;;5088162;28;20038;-80
2021/12/11 09:16:35;;;;;;;138.00;42.55;;;5.00;99.90;;;;;;5103941;28;20024;-80
2021/12/11 09:19:16;;;;;;;99.82;36.72;;;5.00;99.90;;;;;;5073969;28;20016;-80
2021/12/11 09:21:50;;;;;;;119.80;38.63;;;5.00;99.90;;;;;;5099572;28;20028;-79
2021/12/11 09:24:26;;;;;;;108.78;35.22;;;5.10;99.90;;;;;;5081589;28;20080;-80
2021/12/11 09:26:56;;;;;;;105.35;36.00;;;5.10;99.90;;;;;;5110785;28;20034;-79
2021/12/11 09:29:36;;;;;;;95.55;34.40;;;5.10;99.90;;;;;;5093931;28;20076;-80
2021/12/11 09:32:28;;;;;;;93.80;32.08;;;5.20;99.90;;;;;;5089832;28;20437;-80
2021/12/11 09:35:03;;;;;;;83.90;31.25;;;5.30;99.90;;;;;;5111876;28;20752;-80
2021/12/11 09:37:29;;;;;;;79.53;27.95;;;5.30;99.90;;;;;;5079547;28;20028;-79
2021/12/11 09:40:06;;;;;;;69.38;25.80;;;5.30;99.90;;;;;;5082194;28;20411;-79
2021/12/11 09:42:32;;;;;;;77.32;26.15;;;5.40;99.90;;;;;;5093624;28;20020;-80
2021/12/11 09:45:21;;;;;;;74.90;24.48;;;5.40;99.90;;;;;;5092975;28;20027;-79
2021/12/11 09:47:56;;;;;;;65.93;21.20;;;5.50;99.90;;;;;;5111565;28;20028;-78
2021/12/11 09:50:34;;;;;;;62.40;20.58;;;5.50;99.90;;;;;;5107078;28;20031;-78
2021/12/11 09:53:00;;;;;;;68.60;21.30;;;5.60;99.90;;;;;;5086110;28;20028;-76
2021/12/11 09:55:31;;;;;;;43.50;17.13;;;5.70;99.90;;;;;;5065642;28;20029;-77
2021/12/11 09:58:01;;;;;;;47.30;16.30;;;5.70;99.90;;;;;;5094967;28;20028;-77
2021/12/11 10:00:36;;;;;;;52.00;15.77;;;5.70;99.90;;;;;;5101235;28;20047;-77
2021/12/11 10:03:05;;;;;;;47.30;15.38;;;5.80;99.90;;;;;;5093409;28;20456;-77
2021/12/11 10:05:49;;;;;;;36.10;13.13;;;5.90;99.90;;;;;;5090127;28;20032;-77
2021/12/11 10:08:39;;;;;;;45.80;11.48;;;5.90;99.90;;;;;;5110227;28;20115;-78
2021/12/11 10:11:22;;;;;;;46.78;12.90;;;6.00;99.90;;;;;;5087813;28;20439;-77
2021/12/11 10:14:12;;;;;;;38.78;9.88;;;6.00;99.90;;;;;;5084202;28;20028;-78
2021/12/11 10:16:44;;;;;;;39.20;10.77;;;6.10;99.90;;;;;;5102211;28;20099;-78
2021/12/11 10:19:12;;;;;;;28.98;8.55;;;6.10;99.90;;;;;;5092811;28;20051;-77
2021/12/11 10:21:51;;;;;;;28.25;8.10;;;6.20;99.90;;;;;;5095694;28;20453;-77
2021/12/11 10:24:21;;;;;;;31.00;9.20;;;6.20;99.90;;;;;;5110928;28;20036;-77
2021/12/11 10:26:47;;;;;;;33.58;8.50;;;6.20;99.90;;;;;;5103456;28;20423;-78
2021/12/11 10:29:15;;;;;;;32.03;9.27;;;6.30;99.90;;;;;;5096804;28;20090;-78
2021/12/11 10:31:49;;;;;;;37.40;7.95;;;6.30;99.90;;;;;;5103027;28;20024;-77
2021/12/11 10:34:18;;;;;;;35.70;7.95;;;6.30;99.90;;;;;;5113723;28;20032;-78
2021/12/11 10:37:07;;;;;;;28.02;7.95;;;6.40;99.90;;;;;;5090223;28;20598;-77
2021/12/11 10:39:35;;;;;;;22.00;7.28;;;6.40;99.90;;;;;;5112638;28;20419;-77
2021/12/11 10:42:01;;;;;;;28.23;7.15;;;6.40;99.90;;;;;;5100052;28;20418;-78
2021/12/11 10:44:34;;;;;;;34.78;8.27;;;6.50;99.90;;;;;;5112870;28;20035;-77
2021/12/11 10:47:17;;;;;;;20.80;6.65;;;6.50;99.90;;;;;;5109690;28;20027;-78
2021/12/11 10:49:44;;;;;;;20.38;6.57;;;6.50;99.90;;;;;;5112093;28;20129;-77
2021/12/11 10:52:21;;;;;;;24.35;6.38;;;6.60;99.90;;;;;;5080700;28;20488;-77
2021/12/11 10:54:49;;;;;;;23.67;6.82;;;6.60;99.90;;;;;;5101208;28;20040;-77
2021/12/11 10:57:16;;;;;;;22.13;6.73;;;6.60;99.90;;;;;;5110902;28;20073;-78
2021/12/11 10:59:43;;;;;;;17.08;6.03;;;6.70;99.90;;;;;;5111551;28;20028;-78
2021/12/11 11:02:20;;;;;;;22.20;6.90;;;6.70;99.90;;;;;;5094341;28;20035;-78
2021/12/11 11:04:52;;;;;;;20.90;6.40;;;6.70;99.90;;;;;;5103921;28;20111;-78
2021/12/11 11:07:20;;;;;;;22.20;6.45;;;6.70;99.90;;;;;;5114276;28;20035;-78
2021/12/11 11:09:48;;;;;;;23.65;6.75;;;6.70;99.90;;;;;;5092558;28;20500;-78
2021/12/11 11:12:19;;;;;;;17.20;6.03;;;6.70;99.90;;;;;;5077515;28;20685;-78
2021/12/11 11:14:47;;;;;;;18.98;5.88;;;6.80;99.90;;;;;;5110808;28;20423;-78
2021/12/11 11:17:18;;;;;;;22.40;6.85;;;6.90;99.90;;;;;;5086459;28;20055;-78
2021/12/11 11:19:47;;;;;;;19.90;7.53;;;6.90;99.90;;;;;;5093117;28;20439;-78
2021/12/11 11:22:20;;;;;;;28.30;7.30;;;6.90;99.90;;;;;;5111243;28;20472;-78
2021/12/11 11:24:56;;;;;;;15.23;6.65;;;7.00;99.90;;;;;;5088726;28;20843;-78
2021/12/11 11:27:22;;;;;;;14.75;6.35;;;7.00;99.90;;;;;;5094914;28;20058;-79
2021/12/11 11:29:49;;;;;;;15.52;6.43;;;7.00;99.90;;;;;;5112487;28;20051;-77
2021/12/11 11:32:19;;;;;;;19.58;6.55;;;7.10;99.90;;;;;;5112519;28;20085;-78
2021/12/11 11:34:45;;;;;;;15.75;6.25;;;7.10;99.90;;;;;;5086131;28;20119;-78
2021/12/11 11:37:18;;;;;;;16.83;6.68;;;7.10;99.90;;;;;;5095581;28;20491;-78
2021/12/11 11:39:45;;;;;;;16.35;5.72;;;7.10;99.90;;;;;;5086121;28;20028;-78
2021/12/11 11:42:20;;;;;;;20.30;6.40;;;7.10;99.90;;;;;;5075280;28;20021;-78
2021/12/11 11:44:47;;;;;;;15.65;5.45;;;7.10;99.90;;;;;;5101870;28;20035;-78
2021/12/11 11:47:15;;;;;;;19.42;6.78;;;7.10;99.90;;;;;;5092690;28;20038;-78
2021/12/11 11:49:41;;;;;;;17.92;6.72;;;7.10;99.90;;;;;;5083061;28;20817;-78
2021/12/11 11:52:17;;;;;;;18.77;5.90;;;7.10;99.90;;;;;;5096475;28;20480;-78
2021/12/11 11:54:46;;;;;;;20.98;6.32;;;7.10;99.90;;;;;;5099790;28;20119;-78
2021/12/11 11:57:34;;;;;;;21.42;5.95;;;7.10;99.90;;;;;;5081760;28;20054;-83
2021/12/11 12:00:04;;;;;;;15.43;5.63;;;7.20;99.90;;;;;;5110846;28;20032;-83
2021/12/11 12:02:31;;;;;;;15.43;4.97;;;7.20;99.90;;;;;;5096967;28;20032;-83
2021/12/11 12:04:59;;;;;;;14.13;5.55;;;7.30;99.90;;;;;;5078891;28;20473;-82
2021/12/11 12:07:29;;;;;;;20.88;5.80;;;7.40;99.90;;;;;;5076330;28;20031;-83
2021/12/11 12:09:58;;;;;;;14.88;4.65;;;7.50;99.90;;;;;;5100930;28;20019;-82
2021/12/11 12:12:24;;;;;;;16.63;4.53;;;7.50;99.90;;;;;;5102831;28;20020;-82
2021/12/11 12:14:52;;;;;;;16.77;5.43;;;7.50;99.90;;;;;;5110576;28;20058;-77
2021/12/11 12:17:20;;;;;;;23.20;6.70;;;7.60;99.90;;;;;;5093303;28;20589;-80
2021/12/11 12:19:49;;;;;;;15.15;5.38;;;7.70;99.90;;;;;;5079307;28;20020;-83
2021/12/11 12:22:20;;;;;;;20.13;5.75;;;7.80;99.90;;;;;;5077160;28;20537;-82
2021/12/11 12:24:49;;;;;;;23.25;5.03;;;7.80;99.90;;;;;;5093328;28;20077;-81
2021/12/11 12:27:19;;;;;;;22.55;5.22;;;7.80;99.90;;;;;;5095831;28;20038;-81
2021/12/11 12:29:46;;;;;;;13.57;5.30;;;7.70;99.90;;;;;;5093590;28;20043;-81
2021/12/11 12:32:16;;;;;;;21.33;5.72;;;7.70;99.90;;;;;;5076337;28;20054;-81
2021/12/11 12:34:43;;;;;;;21.92;5.53;;;7.70;99.90;;;;;;5093415;28;20034;-80
2021/12/11 12:37:09;;;;;;;19.70;5.53;;;7.70;99.90;;;;;;5078246;28;20365;-82
2021/12/11 12:39:40;;;;;;;17.98;5.40;;;7.70;99.90;;;;;;5108264;28;20816;-79
2021/12/11 12:42:37;;;;;;;20.17;5.30;;;7.70;99.90;;;;;;5094962;28;20027;-80
2021/12/11 12:45:17;;;;;;;17.50;5.20;;;7.70;99.90;;;;;;5097467;28;21759;-79
2021/12/11 12:47:47;;;;;;;18.02;5.05;;;7.60;99.90;;;;;;5080879;28;20043;-80
2021/12/11 12:50:19;;;;;;;16.45;4.90;;;7.60;99.90;;;;;;5082008;28;20024;-80
2021/12/11 12:52:46;;;;;;;19.23;5.18;;;7.60;99.90;;;;;;5080205;28;20077;-81
2021/12/11 12:55:46;;;;;;;17.58;5.07;;;7.60;99.90;;;;;;5059460;28;20024;-81
2021/12/11 12:58:20;;;;;;;15.60;5.20;;;7.60;99.90;;;;;;5081539;28;20781;-81
2021/12/11 13:00:50;;;;;;;16.17;5.10;;;7.70;99.90;;;;;;5095698;28;20048;-80
2021/12/11 13:03:24;;;;;;;16.95;4.65;;;7.70;99.90;;;;;;5095727;28;20063;-78
2021/12/11 13:05:54;;;;;;;22.25;5.32;;;7.70;99.90;;;;;;5114119;28;20024;-81
2021/12/11 13:08:32;;;;;;;22.20;4.93;;;7.80;99.90;;;;;;5090601;28;20024;-81